Time;durP1;ratioP1;P1;durP2;ratioP2;P2;SDS_P1;SDS_P2;PMS_P1;PMS_P2;Temp;Humidity;BMP_temperature;BMP_pressure;BME280_temperature;BME280_humidity;BME280_pressure;Samples;Min_cycle;Max_cycle;Signal;HPM_P1;HPM_P2
2022/05/25 00:00:18;;;;;;;0.60;0.40;;;;;22.80;100127.00;;;;2079031;28;20689;-59
2022/05/25 00:01:19;;;;;;;0.70;0.50;;;;;22.80;100134.00;;;;2079711;28;20301;-59
2022/05/25 00:02:19;;;;;;;1.13;0.50;;;;;22.80;100126.00;;;;2079248;28;20244;-58
2022/05/25 00:03:19;;;;;;;0.70;0.50;;;;;22.80;100130.00;;;;2079898;28;20221;-59
2022/05/25 00:04:20;;;;;;;0.80;0.50;;;;;22.80;100134.00;;;;2079615;28;20209;-59
2022/05/25 00:05:20;;;;;;;0.70;0.40;;;;;22.80;100132.00;;;;2079407;28;20240;-58
2022/05/25 00:06:20;;;;;;;1.13;0.40;;;;;22.80;100135.00;;;;2078938;28;20236;-58
2022/05/25 00:07:21;;;;;;;0.70;0.40;;;;;22.80;100134.00;;;;2078739;28;20418;-58
2022/05/25 00:08:21;;;;;;;1.00;0.40;;;;;22.80;100133.00;;;;2071558;28;20241;-59
2022/05/25 00:09:22;;;;;;;0.67;0.40;;;;;22.80;100131.00;;;;2070968;28;20372;-58
2022/05/25 00:10:22;;;;;;;0.73;0.30;;;;;22.80;100132.00;;;;2071590;28;20214;-59
2022/05/25 00:11:22;;;;;;;0.60;0.40;;;;;22.80;100132.00;;;;2071775;28;20222;-59
2022/05/25 00:12:23;;;;;;;1.00;0.50;;;;;22.80;100126.00;;;;2071643;28;20301;-58
2022/05/25 00:13:23;;;;;;;0.80;0.40;;;;;22.70;100135.00;;;;2071597;28;20210;-58
2022/05/25 00:14:23;;;;;;;0.70;0.50;;;;;22.80;100135.00;;;;2071143;28;20237;-58
2022/05/25 00:15:24;;;;;;;0.70;0.50;;;;;22.70;100126.00;;;;2070840;28;20303;-58
2022/05/25 00:16:24;;;;;;;1.03;0.50;;;;;22.50;100137.00;;;;2070969;28;20241;-58
2022/05/25 00:17:24;;;;;;;0.70;0.40;;;;;22.80;100141.00;;;;2070660;28;20214;-59
2022/05/25 00:18:25;;;;;;;0.70;0.40;;;;;22.70;100053.00;;;;2071330;28;20263;-58
2022/05/25 00:20:45;;;;;;;0.98;0.50;;;;;22.80;100144.00;;;;2069196;28;20238;-59
2022/05/25 00:21:45;;;;;;;0.60;0.37;;;;;22.70;100139.00;;;;2071417;28;20290;-58
2022/05/25 00:22:48;;;;;;;1.00;0.40;;;;;22.70;100145.00;;;;2073674;28;20222;-59
2022/05/25 00:23:48;;;;;;;0.60;0.50;;;;;22.70;100145.00;;;;2074622;28;20780;-58
2022/05/25 00:24:49;;;;;;;0.60;0.40;;;;;22.80;100142.00;;;;2078451;28;20233;-59
2022/05/25 00:25:49;;;;;;;0.70;0.50;;;;;22.70;100147.00;;;;2078105;28;20217;-58
2022/05/25 00:26:49;;;;;;;0.80;0.60;;;;;22.80;100149.00;;;;2069801;28;20250;-59
2022/05/25 00:27:50;;;;;;;0.73;0.47;;;;;22.80;100145.00;;;;2069354;28;20223;-58
2022/05/25 00:28:50;;;;;;;0.80;0.57;;;;;22.70;100148.00;;;;2085625;28;20225;-58
2022/05/25 00:29:50;;;;;;;0.90;0.40;;;;;22.80;100146.00;;;;2085907;28;20225;-57
2022/05/25 00:30:51;;;;;;;0.70;0.50;;;;;22.70;100149.00;;;;2070298;28;20220;-58
2022/05/25 00:31:51;;;;;;;0.70;0.57;;;;;22.70;100150.00;;;;2085578;28;20245;-58
2022/05/25 00:32:53;;;;;;;0.60;0.30;;;;;22.70;100150.00;;;;2061808;28;20218;-58
2022/05/25 00:33:53;;;;;;;0.70;0.43;;;;;22.70;100155.00;;;;2062324;28;20223;-58
2022/05/25 00:34:53;;;;;;;1.10;0.47;;;;;22.70;100148.00;;;;2070659;28;20221;-58
2022/05/25 00:35:54;;;;;;;1.43;0.50;;;;;22.70;100146.00;;;;2069824;28;20237;-59
2022/05/25 00:36:54;;;;;;;1.00;0.50;;;;;22.70;100147.00;;;;2071295;28;20222;-58
2022/05/25 00:37:55;;;;;;;0.60;0.40;;;;;22.70;100147.00;;;;2071201;28;20214;-58
2022/05/25 00:38:55;;;;;;;1.20;0.40;;;;;22.80;100145.00;;;;2071228;28;20292;-59
2022/05/25 00:39:55;;;;;;;0.60;0.40;;;;;22.80;100149.00;;;;2071468;28;20249;-59
2022/05/25 00:40:56;;;;;;;0.80;0.50;;;;;22.70;100151.00;;;;2071078;28;20221;-59
2022/05/25 00:41:57;;;;;;;1.13;0.50;;;;;22.70;100143.00;;;;2070367;28;20234;-58
2022/05/25 00:42:57;;;;;;;0.70;0.40;;;;;22.70;100147.00;;;;2070705;28;20242;-58
2022/05/25 00:43:57;;;;;;;0.80;0.50;;;;;22.70;100145.00;;;;2071308;28;20219;-59
2022/05/25 00:44:58;;;;;;;0.70;0.43;;;;;22.70;100149.00;;;;2070474;28;20264;-58
2022/05/25 00:46:04;;;;;;;1.23;0.40;;;;;22.70;100145.00;;;;2070307;28;20557;-58
2022/05/25 00:47:06;;;;;;;0.80;0.40;;;;;22.70;100147.00;;;;2069573;28;20210;-59
2022/05/25 00:48:07;;;;;;;0.90;0.50;;;;;22.70;100152.00;;;;2054407;28;20227;-59
2022/05/25 00:49:14;;;;;;;1.17;0.60;;;;;22.70;100144.00;;;;2062134;28;20572;-59
2022/05/25 00:50:16;;;;;;;0.80;0.47;;;;;22.70;100147.00;;;;2069859;28;20258;-56
2022/05/25 00:51:27;;;;;;;0.80;0.40;;;;;22.70;100146.00;;;;2070455;28;20265;-56
2022/05/25 00:52:28;;;;;;;0.82;0.50;;;;;22.70;100153.00;;;;2062377;28;20692;-56
2022/05/25 00:53:28;;;;;;;0.60;0.30;;;;;22.70;100154.00;;;;2062515;28;20219;-56
2022/05/25 00:54:33;;;;;;;0.83;0.40;;;;;22.70;100151.00;;;;2078675;28;20248;-56
2022/05/25 00:55:33;;;;;;;0.70;0.50;;;;;22.70;100140.00;;;;2069395;28;20765;-56
2022/05/25 00:56:33;;;;;;;0.70;0.43;;;;;22.70;100150.00;;;;2069999;28;20260;-56
2022/05/25 00:57:35;;;;;;;0.90;0.50;;;;;22.70;100150.00;;;;2069821;28;20218;-55
2022/05/25 00:58:36;;;;;;;0.77;0.57;;;;;22.70;100153.00;;;;2062392;28;20229;-56
2022/05/25 01:00:15;;;;;;;1.37;0.40;;;;;22.50;100150.00;;;;2062636;28;20309;-56
2022/05/25 01:01:16;;;;;;;0.75;0.45;;;;;22.70;100152.00;;;;2055681;28;20216;-56
2022/05/25 01:02:16;;;;;;;0.70;0.43;;;;;22.70;100149.00;;;;2062390;28;20227;-57
2022/05/25 01:03:19;;;;;;;0.87;0.50;;;;;22.70;100162.00;;;;2069358;28;20225;-55
2022/05/25 01:04:19;;;;;;;0.90;0.40;;;;;22.70;100155.00;;;;2059054;28;20207;-56
2022/05/25 01:05:22;;;;;;;0.70;0.50;;;;;22.70;100160.00;;;;2069430;28;20297;-56
2022/05/25 01:06:39;;;;;;;1.05;0.45;;;;;22.70;100149.00;;;;2062103;28;20285;-56
2022/05/25 01:08:05;;;;;;;0.90;0.50;;;;;22.70;100162.00;;;;2066602;28;20277;-56
2022/05/25 01:09:23;;;;;;;0.70;0.40;;;;;22.70;100150.00;;;;2061701;28;20309;-56
2022/05/25 01:10:49;;;;;;;1.00;0.50;;;;;22.70;100160.00;;;;2059572;28;20322;-56
2022/05/25 01:12:16;;;;;;;0.70;0.50;;;;;22.70;100158.00;;;;2065310;28;20221;-56
2022/05/25 01:13:28;;;;;;;0.75;0.45;;;;;22.70;100165.00;;;;2065815;28;20214;-56
2022/05/25 01:15:05;;;;;;;0.90;0.40;;;;;22.70;100159.00;;;;2065978;28;20217;-56
2022/05/25 01:16:13;;;;;;;1.00;0.40;;;;;22.70;100163.00;;;;2070207;28;20264;-56
2022/05/25 01:17:25;;;;;;;0.70;0.50;;;;;22.70;100168.00;;;;2070418;28;20727;-55
2022/05/25 01:18:28;;;;;;;1.15;0.40;;;;;22.70;100167.00;;;;2070940;28;20218;-56
2022/05/25 01:19:49;;;;;;;0.95;0.50;;;;;22.70;100168.00;;;;2070852;28;20690;-56
2022/05/25 01:20:53;;;;;;;0.70;0.45;;;;;22.60;100174.00;;;;2069971;28;20210;-56
2022/05/25 01:21:56;;;;;;;1.05;0.50;;;;;22.70;100171.00;;;;2062565;28;20217;-55
2022/05/25 01:23:11;;;;;;;0.70;0.40;;;;;22.70;100170.00;;;;2070475;28;20218;-56
2022/05/25 01:24:36;;;;;;;0.77;0.40;;;;;22.70;100177.00;;;;2070861;28;20210;-55
2022/05/25 01:25:52;;;;;;;0.90;0.40;;;;;22.70;100179.00;;;;2069535;28;20786;-56
2022/05/25 01:27:41;;;;;;;0.77;0.50;;;;;22.70;100181.00;;;;2069980;28;20221;-56
2022/05/25 01:29:05;;;;;;;1.60;0.50;;;;;22.70;100177.00;;;;2045115;28;20717;-56
2022/05/25 01:30:19;;;;;;;1.15;0.50;;;;;22.70;100179.00;;;;2040468;28;20426;-56
2022/05/25 01:31:24;;;;;;;1.02;0.50;;;;;22.70;100175.00;;;;2039266;28;20244;-56
2022/05/25 01:32:47;;;;;;;0.70;0.52;;;;;22.70;100173.00;;;;2038410;29;20332;-56
2022/05/25 01:34:02;;;;;;;0.88;0.40;;;;;22.70;100176.00;;;;2048045;28;20222;-56
2022/05/25 01:35:30;;;;;;;3.03;0.65;;;;;22.70;100169.00;;;;2067669;28;20221;-56
2022/05/25 01:36:52;;;;;;;0.90;0.50;;;;;22.70;100182.00;;;;2061263;28;20220;-56
2022/05/25 01:38:15;;;;;;;1.55;0.60;;;;;22.70;100180.00;;;;2065937;28;20209;-56
2022/05/25 01:39:17;;;;;;;0.73;0.45;;;;;22.70;100177.00;;;;2073548;28;20296;-56
2022/05/25 01:40:32;;;;;;;0.70;0.40;;;;;22.70;100176.00;;;;2069946;28;20210;-56
2022/05/25 01:41:54;;;;;;;1.17;0.50;;;;;22.70;100181.00;;;;2073525;28;20294;-56
2022/05/25 01:42:57;;;;;;;0.80;0.52;;;;;22.60;100182.00;;;;2083716;28;20249;-56
2022/05/25 01:44:01;;;;;;;1.00;0.70;;;;;22.70;100186.00;;;;2070015;28;20214;-56
2022/05/25 01:45:03;;;;;;;1.05;0.50;;;;;22.70;100176.00;;;;2070733;28;20222;-56
2022/05/25 01:46:07;;;;;;;1.00;0.47;;;;;22.70;100190.00;;;;2077894;28;20564;-55
2022/05/25 01:47:11;;;;;;;0.77;0.50;;;;;22.70;100183.00;;;;2068469;28;20694;-56
2022/05/25 01:48:11;;;;;;;0.88;0.50;;;;;22.70;100180.00;;;;2061790;28;20215;-57
2022/05/25 01:49:20;;;;;;;1.00;0.60;;;;;22.70;100192.00;;;;2061783;28;20592;-56
2022/05/25 01:50:25;;;;;;;0.80;0.50;;;;;22.70;100190.00;;;;2062744;28;20702;-56
2022/05/25 01:51:38;;;;;;;0.82;0.52;;;;;22.70;100185.00;;;;2054570;28;20605;-56
2022/05/25 01:52:44;;;;;;;0.80;0.50;;;;;22.60;100187.00;;;;2056482;28;20222;-56
2022/05/25 01:53:47;;;;;;;1.55;0.70;;;;;22.60;100187.00;;;;2062725;28;20227;-56
2022/05/25 01:55:00;;;;;;;0.90;0.60;;;;;22.60;100191.00;;;;2053902;28;20310;-58
2022/05/25 01:56:03;;;;;;;1.00;0.50;;;;;22.60;100172.00;;;;2062983;28;20211;-56
2022/05/25 01:57:11;;;;;;;0.90;0.43;;;;;22.60;100189.00;;;;2061656;28;20565;-56
2022/05/25 01:58:14;;;;;;;0.88;0.50;;;;;22.70;100192.00;;;;2055073;28;20289;-56
2022/05/25 01:59:15;;;;;;;0.98;0.60;;;;;22.60;100176.00;;;;2046227;28;20208;-56
2022/05/25 02:00:48;;;;;;;0.60;0.40;;;;;22.60;100182.00;;;;2061712;28;20221;-56
2022/05/25 02:04:19;;;;;;;0.80;0.50;;;;;22.60;100199.00;;;;2065746;28;20224;-56
2022/05/25 02:04:30;;;;;;;0.80;0.60;;;;;22.60;100157.00;;;;2078138;28;20244;-56
2022/05/25 02:05:30;;;;;;;0.60;0.40;;;;;22.60;100192.00;;;;2066075;28;20571;-55
2022/05/25 02:06:44;;;;;;;0.70;0.50;;;;;22.60;100185.00;;;;2061768;28;20604;-56
2022/05/25 02:07:56;;;;;;;0.80;0.43;;;;;22.60;100187.00;;;;2057344;28;20270;-56
2022/05/25 02:09:08;;;;;;;1.30;0.60;;;;;22.60;100162.00;;;;2069897;28;20214;-56
2022/05/25 02:10:10;;;;;;;0.75;0.40;;;;;22.70;100187.00;;;;2070032;28;20207;-56
2022/05/25 02:11:23;;;;;;;1.27;0.60;;;;;22.60;100190.00;;;;2069686;28;20225;-56
2022/05/25 02:12:35;;;;;;;0.80;0.50;;;;;22.70;100199.00;;;;2069833;28;20206;-56
2022/05/25 02:13:55;;;;;;;1.30;0.65;;;;;22.60;100182.00;;;;2063451;28;20218;-56
2022/05/25 02:14:55;;;;;;;0.80;0.50;;;;;22.60;100197.00;;;;2069355;28;20218;-56
2022/05/25 02:15:59;;;;;;;0.90;0.60;;;;;22.60;100194.00;;;;2070232;28;20221;-56
2022/05/25 02:17:22;;;;;;;0.82;0.55;;;;;22.60;100194.00;;;;2077611;28;20723;-55
2022/05/25 02:18:39;;;;;;;0.80;0.47;;;;;22.60;100206.00;;;;2072865;28;20237;-56
2022/05/25 02:19:57;;;;;;;1.00;0.50;;;;;22.60;100184.00;;;;2070108;28;20218;-56
2022/05/25 02:21:01;;;;;;;0.70;0.50;;;;;22.60;100195.00;;;;2072516;28;20225;-55
2022/05/25 02:22:20;;;;;;;1.25;0.70;;;;;22.60;100189.00;;;;2078089;28;20288;-54
2022/05/25 02:23:32;;;;;;;1.40;0.50;;;;;22.60;100190.00;;;;2070177;28;20218;-53
2022/05/25 02:24:42;;;;;;;0.98;0.40;;;;;22.60;100182.00;;;;2072495;28;20266;-54
2022/05/25 02:25:56;;;;;;;0.75;0.50;;;;;22.60;100191.00;;;;2076981;28;20300;-56
2022/05/25 02:27:03;;;;;;;0.70;0.50;;;;;22.60;100196.00;;;;2069518;28;20638;-54
2022/05/25 02:28:09;;;;;;;1.05;0.60;;;;;22.60;100198.00;;;;2063434;28;20215;-55
2022/05/25 02:29:09;;;;;;;0.93;0.50;;;;;22.60;100198.00;;;;2063927;28;20595;-54
2022/05/25 02:30:13;;;;;;;1.07;0.60;;;;;22.60;100191.00;;;;2070022;28;20253;-55
2022/05/25 02:31:17;;;;;;;1.00;0.70;;;;;22.60;100199.00;;;;2061496;28;20787;-54
2022/05/25 02:32:24;;;;;;;0.80;0.60;;;;;22.60;100185.00;;;;2061790;28;20218;-54
2022/05/25 02:33:31;;;;;;;0.90;0.50;;;;;22.60;100172.00;;;;2054076;28;20553;-56
2022/05/25 02:34:32;;;;;;;0.98;0.50;;;;;22.60;100202.00;;;;2055352;28;20714;-54
2022/05/25 02:35:33;;;;;;;0.80;0.60;;;;;22.60;100199.00;;;;2068632;28;20218;-55
2022/05/25 02:36:34;;;;;;;0.93;0.60;;;;;22.60;100201.00;;;;2061060;28;20239;-55
2022/05/25 02:37:35;;;;;;;0.80;0.50;;;;;22.60;100198.00;;;;2061009;28;20839;-56
2022/05/25 02:38:37;;;;;;;0.90;0.70;;;;;22.60;100205.00;;;;2069172;28;20325;-56
2022/05/25 02:39:37;;;;;;;1.35;0.70;;;;;22.60;100201.00;;;;2060864;28;20211;-55
2022/05/25 02:40:38;;;;;;;1.10;0.70;;;;;22.60;100197.00;;;;2060943;28;20658;-54
2022/05/25 02:42:14;;;;;;;0.80;0.60;;;;;22.60;100198.00;;;;2053064;28;20215;-55
2022/05/25 02:43:15;;;;;;;0.70;0.40;;;;;22.60;100205.00;;;;2052201;28;20305;-54
2022/05/25 02:44:15;;;;;;;0.70;0.50;;;;;22.40;100210.00;;;;2068873;28;20217;-56
2022/05/25 02:45:16;;;;;;;1.00;0.67;;;;;22.60;100201.00;;;;2068997;28;20221;-54
2022/05/25 02:46:16;;;;;;;0.90;0.60;;;;;22.60;100210.00;;;;2060695;28;20288;-55
2022/05/25 02:47:16;;;;;;;1.00;0.60;;;;;22.60;100201.00;;;;2068734;28;20226;-53
2022/05/25 02:48:17;;;;;;;1.10;0.70;;;;;22.60;100207.00;;;;2067983;28;20614;-56
2022/05/25 02:49:17;;;;;;;1.30;0.73;;;;;22.60;100205.00;;;;2068470;28;20290;-56
2022/05/25 02:50:18;;;;;;;0.90;0.50;;;;;22.60;100206.00;;;;2069195;28;20206;-55
2022/05/25 02:51:18;;;;;;;0.97;0.60;;;;;22.60;100204.00;;;;2072601;28;20259;-56
2022/05/25 02:52:18;;;;;;;0.80;0.50;;;;;22.60;100210.00;;;;2076738;28;20271;-53
2022/05/25 02:53:20;;;;;;;1.20;0.70;;;;;22.60;100201.00;;;;2077024;28;20581;-55
2022/05/25 02:54:22;;;;;;;1.13;0.50;;;;;22.60;100209.00;;;;2077865;28;20305;-55
2022/05/25 02:55:22;;;;;;;0.80;0.50;;;;;22.60;100209.00;;;;2075343;28;20236;-56
2022/05/25 02:56:22;;;;;;;0.90;0.50;;;;;22.60;100210.00;;;;2077661;28;20221;-55
2022/05/25 02:57:23;;;;;;;1.13;0.70;;;;;22.60;100206.00;;;;2072109;28;20226;-55
2022/05/25 02:58:24;;;;;;;1.00;0.60;;;;;22.60;100219.00;;;;2069065;28;20221;-56
2022/05/25 02:59:24;;;;;;;0.90;0.60;;;;;22.60;100211.00;;;;2069115;28;20210;-56
2022/05/25 03:00:24;;;;;;;0.80;0.60;;;;;22.50;100226.00;;;;2069031;28;20214;-56
2022/05/25 03:01:25;;;;;;;1.10;0.70;;;;;22.50;100215.00;;;;2067519;28;20221;-54
2022/05/25 03:02:25;;;;;;;0.80;0.60;;;;;22.60;100218.00;;;;2069909;28;20222;-53
2022/05/25 03:03:25;;;;;;;0.77;0.50;;;;;22.60;100218.00;;;;2069129;28;20225;-54
2022/05/25 03:04:26;;;;;;;0.80;0.70;;;;;22.60;100223.00;;;;2060746;28;20314;-56
2022/05/25 03:05:26;;;;;;;0.90;0.60;;;;;22.60;100226.00;;;;2054585;28;20306;-56
2022/05/25 03:06:26;;;;;;;0.90;0.60;;;;;22.60;100225.00;;;;2069278;28;20218;-56
2022/05/25 03:07:27;;;;;;;0.97;0.50;;;;;22.60;100217.00;;;;2071285;28;20702;-55
2022/05/25 03:08:27;;;;;;;0.87;0.50;;;;;22.60;100225.00;;;;2076886;28;20719;-56
2022/05/25 03:09:27;;;;;;;0.90;0.60;;;;;22.50;100217.00;;;;2078737;28;20233;-56
2022/05/25 03:10:28;;;;;;;1.03;0.80;;;;;22.50;100213.00;;;;2078325;28;20241;-54
2022/05/25 03:11:28;;;;;;;0.70;0.50;;;;;22.60;100174.00;;;;2078389;28;20216;-55
2022/05/25 03:12:28;;;;;;;1.10;0.50;;;;;22.50;100219.00;;;;2077545;28;20221;-56
2022/05/25 03:13:29;;;;;;;0.97;0.60;;;;;22.50;100216.00;;;;2077777;28;20213;-53
2022/05/25 03:14:29;;;;;;;1.03;0.60;;;;;22.50;100224.00;;;;2076643;28;20777;-60
2022/05/25 03:15:30;;;;;;;1.33;0.77;;;;;22.50;100232.00;;;;2076661;28;20304;-55
2022/05/25 03:16:30;;;;;;;1.03;0.60;;;;;22.50;100233.00;;;;2078401;28;20732;-55
2022/05/25 03:17:31;;;;;;;1.20;0.70;;;;;22.50;100233.00;;;;2069110;28;20218;-55
2022/05/25 03:18:31;;;;;;;1.00;0.50;;;;;22.50;100228.00;;;;2069493;28;20464;-55
2022/05/25 03:19:31;;;;;;;0.90;0.70;;;;;22.50;100229.00;;;;2078360;28;20215;-56
2022/05/25 03:20:32;;;;;;;1.87;0.63;;;;;22.60;100231.00;;;;2078234;28;20229;-54
2022/05/25 03:21:32;;;;;;;1.03;0.60;;;;;22.50;100232.00;;;;2075942;28;20751;-56
2022/05/25 03:22:34;;;;;;;0.90;0.70;;;;;22.50;100228.00;;;;2077446;28;20333;-55
2022/05/25 03:23:35;;;;;;;1.00;0.70;;;;;22.60;100240.00;;;;2077689;28;20230;-54
2022/05/25 03:24:36;;;;;;;1.48;0.60;;;;;22.50;100235.00;;;;2078074;28;20288;-56
2022/05/25 03:25:36;;;;;;;0.70;0.50;;;;;22.60;100180.00;;;;2077412;28;20225;-56
2022/05/25 03:26:37;;;;;;;1.73;0.80;;;;;22.50;100232.00;;;;2078293;28;20577;-54
2022/05/25 03:27:37;;;;;;;1.90;0.80;;;;;22.50;100246.00;;;;2077724;28;20555;-55
2022/05/25 03:28:38;;;;;;;1.50;0.70;;;;;22.50;100238.00;;;;2078815;28;20220;-55
2022/05/25 03:29:38;;;;;;;0.80;0.50;;;;;22.50;100234.00;;;;2078976;28;20679;-56
2022/05/25 03:30:39;;;;;;;1.30;0.60;;;;;22.60;100234.00;;;;2074858;28;20225;-61
2022/05/25 03:31:40;;;;;;;1.25;0.68;;;;;22.60;100248.00;;;;2055626;28;20274;-59
2022/05/25 03:32:41;;;;;;;1.10;0.60;;;;;22.60;100241.00;;;;2070634;28;20206;-59
2022/05/25 03:33:42;;;;;;;1.00;0.70;;;;;22.60;100231.00;;;;2080331;28;20209;-55
2022/05/25 03:34:42;;;;;;;0.90;0.70;;;;;22.50;100241.00;;;;2063309;28;20466;-56
2022/05/25 03:35:43;;;;;;;1.00;0.60;;;;;22.60;100238.00;;;;2062177;28;20214;-56
2022/05/25 03:36:44;;;;;;;1.03;0.60;;;;;22.60;100252.00;;;;2071791;28;20214;-54
2022/05/25 03:37:44;;;;;;;1.83;0.70;;;;;22.50;100248.00;;;;2071385;28;20742;-56
2022/05/25 03:38:44;;;;;;;0.80;0.60;;;;;22.50;100239.00;;;;2071833;28;20214;-53
2022/05/25 03:39:45;;;;;;;0.83;0.60;;;;;22.50;100244.00;;;;2071660;28;20944;-56
2022/05/25 03:40:45;;;;;;;0.90;0.60;;;;;22.60;100241.00;;;;2072172;28;20217;-59
2022/05/25 03:41:47;;;;;;;1.20;0.67;;;;;22.60;100243.00;;;;2075181;28;20268;-56
2022/05/25 03:42:48;;;;;;;0.75;0.50;;;;;22.50;100246.00;;;;2063715;28;20226;-59
2022/05/25 03:43:48;;;;;;;0.97;0.60;;;;;22.50;100250.00;;;;2069422;28;20304;-56
2022/05/25 03:44:48;;;;;;;1.27;0.60;;;;;22.50;100244.00;;;;2071517;28;20218;-55
2022/05/25 03:45:49;;;;;;;1.77;0.60;;;;;22.50;100247.00;;;;2070551;28;20214;-56
2022/05/25 03:46:50;;;;;;;0.93;0.70;;;;;22.50;100247.00;;;;2071587;28;20224;-56
2022/05/25 03:47:50;;;;;;;1.23;0.60;;;;;22.50;100253.00;;;;2074533;28;20214;-56
2022/05/25 03:48:51;;;;;;;1.07;0.60;;;;;22.50;100250.00;;;;2080240;28;20304;-54
2022/05/25 03:49:52;;;;;;;1.30;0.70;;;;;22.50;100259.00;;;;2075873;28;20214;-55
2022/05/25 03:50:52;;;;;;;0.80;0.60;;;;;22.50;100261.00;;;;2063551;28;20242;-55
2022/05/25 03:51:53;;;;;;;0.90;0.70;;;;;22.50;100259.00;;;;2063017;28;20219;-56
2022/05/25 03:52:53;;;;;;;1.30;0.70;;;;;22.50;100260.00;;;;2059212;28;20269;-57
2022/05/25 03:53:53;;;;;;;1.10;0.70;;;;;22.50;100267.00;;;;2076148;28;20273;-56
2022/05/25 03:54:54;;;;;;;1.13;0.60;;;;;22.50;100262.00;;;;2071957;28;20306;-58
2022/05/25 03:55:54;;;;;;;0.70;0.43;;;;;22.50;100265.00;;;;2075760;28;20245;-55
2022/05/25 03:56:54;;;;;;;0.87;0.70;;;;;22.50;100267.00;;;;2077973;28;20209;-56
2022/05/25 03:57:55;;;;;;;1.20;0.70;;;;;22.50;100271.00;;;;2079580;28;20244;-56
2022/05/25 03:58:55;;;;;;;1.00;0.60;;;;;22.50;100265.00;;;;2077975;28;20241;-55
2022/05/25 03:59:56;;;;;;;1.10;0.60;;;;;22.50;100264.00;;;;2077969;28;20217;-56
2022/05/25 04:00:56;;;;;;;1.30;0.67;;;;;22.50;100266.00;;;;2079549;28;20233;-55
2022/05/25 04:01:56;;;;;;;1.50;0.80;;;;;22.50;100268.00;;;;2079531;28;20252;-53
2022/05/25 04:02:59;;;;;;;2.50;0.93;;;;;22.50;100259.00;;;;2078938;28;20237;-56
2022/05/25 04:04:00;;;;;;;1.15;0.63;;;;;22.50;100272.00;;;;2070165;28;20229;-56
2022/05/25 04:05:09;;;;;;;1.00;0.60;;;;;22.50;100272.00;;;;2078771;28;20300;-55
2022/05/25 04:06:10;;;;;;;1.27;0.60;;;;;22.50;100272.00;;;;2077919;28;20443;-56
2022/05/25 04:07:10;;;;;;;0.80;0.50;;;;;22.50;100280.00;;;;2078704;28;20222;-55
2022/05/25 04:08:10;;;;;;;1.30;0.60;;;;;22.50;100270.00;;;;2070828;28;20225;-54
2022/05/25 04:09:11;;;;;;;1.00;0.87;;;;;22.50;100270.00;;;;2070570;28;20214;-56
2022/05/25 04:10:16;;;;;;;1.40;0.80;;;;;22.50;100276.00;;;;2079243;28;20244;-56
2022/05/25 04:11:16;;;;;;;1.10;0.73;;;;;22.50;100278.00;;;;2079615;28;20214;-54
2022/05/25 04:12:18;;;;;;;0.90;0.80;;;;;22.50;100279.00;;;;2079476;28;20696;-55
2022/05/25 04:13:20;;;;;;;0.90;0.60;;;;;22.50;100274.00;;;;2079224;28;20234;-56
2022/05/25 04:14:20;;;;;;;1.05;0.73;;;;;22.50;100275.00;;;;2078693;28;20432;-55
2022/05/25 04:15:25;;;;;;;1.13;0.70;;;;;22.50;100271.00;;;;2064304;28;20269;-56
2022/05/25 04:16:25;;;;;;;1.55;0.75;;;;;22.50;100273.00;;;;2070472;28;20644;-54
2022/05/25 04:17:26;;;;;;;1.40;0.60;;;;;22.50;100271.00;;;;2070427;28;20229;-53
2022/05/25 04:18:26;;;;;;;1.50;0.80;;;;;22.50;100273.00;;;;2070702;28;20226;-55
2022/05/25 04:19:27;;;;;;;0.90;0.80;;;;;22.50;100266.00;;;;2071336;28;20218;-56
2022/05/25 04:20:28;;;;;;;1.30;0.60;;;;;22.50;100272.00;;;;2071249;28;20286;-55
2022/05/25 04:21:28;;;;;;;1.27;0.70;;;;;22.50;100275.00;;;;2062662;28;20223;-57
2022/05/25 04:22:29;;;;;;;1.00;0.63;;;;;22.50;100268.00;;;;2062517;28;20470;-55
2022/05/25 04:23:30;;;;;;;0.70;0.60;;;;;22.50;100276.00;;;;2078819;28;20232;-54
2022/05/25 04:24:30;;;;;;;1.33;0.70;;;;;22.50;100277.00;;;;2071098;28;20727;-55
2022/05/25 04:25:31;;;;;;;1.70;0.83;;;;;22.50;100278.00;;;;2070584;28;20754;-57
2022/05/25 04:26:32;;;;;;;1.00;0.70;;;;;22.50;100277.00;;;;2070503;28;20702;-53
2022/05/25 04:27:32;;;;;;;1.07;0.80;;;;;22.50;100271.00;;;;2062273;28;20492;-55
2022/05/25 04:28:32;;;;;;;1.30;0.90;;;;;22.50;100265.00;;;;2070372;28;20449;-55
2022/05/25 04:29:36;;;;;;;1.00;0.70;;;;;22.50;100279.00;;;;2071224;28;20218;-56
2022/05/25 04:30:36;;;;;;;1.38;0.85;;;;;22.50;100273.00;;;;2071001;28;20222;-54
2022/05/25 04:31:36;;;;;;;2.00;0.70;;;;;22.50;100275.00;;;;2070522;28;20214;-55
2022/05/25 04:32:36;;;;;;;0.97;0.67;;;;;22.50;100277.00;;;;2061736;28;20223;-55
2022/05/25 04:33:40;;;;;;;0.90;0.60;;;;;22.50;100274.00;;;;2070636;28;20293;-55
2022/05/25 04:34:40;;;;;;;0.80;0.60;;;;;22.50;100275.00;;;;2070609;28;20226;-54
2022/05/25 04:35:41;;;;;;;1.03;0.60;;;;;22.50;100279.00;;;;2069826;28;20221;-55
2022/05/25 04:36:41;;;;;;;2.10;0.80;;;;;22.50;100270.00;;;;2078589;28;20867;-55
2022/05/25 04:37:54;;;;;;;1.20;0.63;;;;;22.50;100285.00;;;;2079441;28;20209;-56
2022/05/25 04:38:55;;;;;;;0.93;0.60;;;;;22.50;100283.00;;;;2078906;28;20327;-56
2022/05/25 04:39:55;;;;;;;3.23;0.90;;;;;22.50;100279.00;;;;2077311;28;20217;-55
2022/05/25 04:40:55;;;;;;;1.20;0.60;;;;;22.50;100283.00;;;;2068845;28;20245;-55
2022/05/25 04:41:56;;;;;;;1.33;0.90;;;;;22.50;100277.00;;;;2077454;28;20300;-55
2022/05/25 04:42:57;;;;;;;0.87;0.70;;;;;22.50;100289.00;;;;2086395;28;20255;-54
2022/05/25 04:43:58;;;;;;;1.00;0.70;;;;;22.50;100287.00;;;;2078162;28;20312;-56
2022/05/25 04:45:00;;;;;;;1.23;0.73;;;;;22.50;100285.00;;;;2077949;28;20678;-54
2022/05/25 04:46:06;;;;;;;1.20;0.82;;;;;22.50;100284.00;;;;2077788;28;20467;-54
2022/05/25 04:47:07;;;;;;;0.85;0.60;;;;;22.50;100285.00;;;;2069616;28;20652;-55
2022/05/25 04:48:07;;;;;;;0.80;0.60;;;;;22.50;100289.00;;;;2061712;28;20262;-56
2022/05/25 04:49:08;;;;;;;1.40;0.70;;;;;22.60;100294.00;;;;2069885;28;20280;-55
2022/05/25 04:50:09;;;;;;;0.87;0.60;;;;;22.50;100290.00;;;;2077924;28;20352;-54
2022/05/25 04:51:11;;;;;;;1.00;0.60;;;;;22.60;100292.00;;;;2078701;28;20217;-55
2022/05/25 04:52:11;;;;;;;1.30;0.77;;;;;22.60;100293.00;;;;2078024;28;20217;-55
2022/05/25 04:53:13;;;;;;;1.57;0.80;;;;;22.60;100301.00;;;;2076808;28;20705;-55
2022/05/25 04:54:13;;;;;;;1.25;0.75;;;;;22.60;100297.00;;;;2078087;28;20306;-55
2022/05/25 04:57:52;;;;;;;0.95;0.70;;;;;22.60;100297.00;;;;2076383;28;20221;-55
2022/05/25 04:58:53;;;;;;;1.63;0.87;;;;;22.60;100301.00;;;;2078795;28;20237;-53
2022/05/25 04:59:55;;;;;;;1.00;0.90;;;;;22.60;100302.00;;;;2078531;28;20210;-54
2022/05/25 05:00:55;;;;;;;1.10;0.65;;;;;22.60;100301.00;;;;2072007;28;20217;-53
2022/05/25 05:01:58;;;;;;;2.20;0.87;;;;;22.60;100305.00;;;;2070476;28;21110;-54
2022/05/25 05:02:58;;;;;;;1.33;0.75;;;;;22.60;100304.00;;;;2070261;28;21005;-55
2022/05/25 05:03:58;;;;;;;1.30;0.77;;;;;22.60;100307.00;;;;2070590;28;20210;-55
2022/05/25 05:04:59;;;;;;;1.17;0.80;;;;;22.60;100305.00;;;;2073678;28;20217;-55
2022/05/25 05:05:59;;;;;;;0.90;0.80;;;;;22.60;100304.00;;;;2078236;28;20210;-56
2022/05/25 05:06:59;;;;;;;1.10;0.80;;;;;22.60;100312.00;;;;2071123;28;20236;-54
2022/05/25 05:08:00;;;;;;;0.90;0.83;;;;;22.60;100306.00;;;;2071239;28;20238;-53
2022/05/25 05:09:06;;;;;;;1.17;0.70;;;;;22.60;100321.00;;;;2071091;28;20213;-54
2022/05/25 05:10:07;;;;;;;1.42;0.90;;;;;22.60;100319.00;;;;2070878;28;20317;-54
2022/05/25 05:11:09;;;;;;;1.20;0.80;;;;;22.60;100322.00;;;;2071019;28;20222;-54
2022/05/25 05:12:10;;;;;;;1.45;0.80;;;;;22.60;100314.00;;;;2070523;28;20786;-55
2022/05/25 05:13:11;;;;;;;1.63;0.90;;;;;22.60;100316.00;;;;2062550;28;20778;-53
2022/05/25 05:14:13;;;;;;;1.27;0.65;;;;;22.60;100311.00;;;;2062255;28;20222;-54
2022/05/25 05:15:14;;;;;;;2.63;1.10;;;;;22.60;100309.00;;;;2062257;28;20270;-55
2022/05/25 05:16:15;;;;;;;1.23;0.73;;;;;22.60;100313.00;;;;2069624;28;20249;-53
2022/05/25 05:17:15;;;;;;;1.40;0.90;;;;;22.60;100308.00;;;;2078201;28;20248;-55
2022/05/25 05:18:16;;;;;;;1.47;0.97;;;;;22.60;100311.00;;;;2070578;28;20210;-55
2022/05/25 05:19:17;;;;;;;0.87;0.70;;;;;22.60;100312.00;;;;2078568;28;20753;-54
2022/05/25 05:20:17;;;;;;;1.27;0.80;;;;;22.60;100321.00;;;;2076236;28;20476;-54
2022/05/25 05:21:17;;;;;;;0.80;0.70;;;;;22.60;100306.00;;;;2071494;28;20210;-54